Nearby METAR Reports

This page may be slow to load as it queries the National Weather Service for data.

KBIS - Bismarck, North Dakota, USA
Distance from station: S 10mi, 15km
Updated: Tue, 24-Nov-2020 2:52am CST
Clear
Clear
 Wind from W
Wind: W 10 mph , 17 km/h
Temperature: 25°F , -4°C
Wind Chill: 15°F , -9°C
Dew Point: 19°F , -7°C
Humidity: 80%
Barometer: 29.78 inHg , 1008.5 hPa
Clouds: Clear
Visibility: 10 miles , 16 km
2020/11/24 08:52 KBIS 240852Z AUTO 28009KT 10SM CLR M04/M07 A2978 RMK AO2 SLP099 T10391067 51009
KDIK - Dickinson, North Dakota, USA
Distance from station: W 95mi, 154km
Updated: Tue, 24-Nov-2020 2:56am CST
Clear
Clear
 Wind from WNW
Wind: WNW 13 mph , 20 km/h
Temperature: 23°F , -5°C
Wind Chill: 11°F , -12°C
Dew Point: 19°F , -7°C
Humidity: 86%
Barometer: 29.78 inHg , 1008.5 hPa
Clouds: Clear
Visibility: 10 miles , 16 km
2020/11/24 08:56 KDIK 240856Z AUTO 29011KT 10SM CLR M05/M07 A2978 RMK AO2 SLP109 T10501072 53017
 
KXWA - Williston, North Dakota, USA
Distance from station: NNW 2mi, 2km
Updated: Tue, 24-Nov-2020 2:51am CST
Overcast
Overcast
 Wind from NW
Wind: NW 16 mph , 26 km/h
Temperature: 16°F , -9°C
Wind Chill: 1°F , -17°C
Dew Point: 12°F , -11°C
Humidity: 86%
Barometer: 29.84 inHg , 1010.5 hPa
Clouds: Overcast
Visibility: 7 miles , 11 km
Cloud details: Overcast 600 ft
2020/11/24 08:51 KXWA 240851Z AUTO 31014KT 7SM OVC006 M09/M11 A2984 RMK AO2 SLP144 I1000 I3000 T10891111 53016
KFAR - Fargo, North Dakota, USA
Distance from station: NNW 4mi, 7km
Updated: Tue, 24-Nov-2020 2:53am CST
Mist, Overcast
Mist, Overcast
 Wind from SSE
Wind: SSE 21 mph , 33 km/h, Gust: 30 mph , 48 km/h
Temperature: 34°F , 1°C
Wind Chill: 22°F , -6°C
Dew Point: 32°F , 0°C
Humidity: 93%
Barometer: 29.86 inHg , 1011.2 hPa
Summary: Mist
Clouds: Overcast
Visibility: 5 miles , 8 km
Cloud details: Overcast 600 ft
2020/11/24 08:53 KFAR 240853Z AUTO 15018G26KT 5SM BR OVC006 01/00 A2986 RMK AO2 PK WND 14027/0819 RAE24 SLP124 P0001 60001 I3000 T00110000 56018
 
KGFK - Grand Forks, North Dakota, USA
Distance from station: NNW 76mi, 123km
Updated: Tue, 24-Nov-2020 2:53am CST
Light freezing, Rain, Mist, Overcast
Light freezing, Rain, Mist, Overcast
 Wind from SSE
Wind: SSE 18 mph , 30 km/h, Gust: 24 mph , 39 km/h
Temperature: 32°F , 0°C
Wind Chill: 21°F , -6°C
Dew Point: 28°F , -2°C
Humidity: 87%
Barometer: 29.85 inHg , 1010.8 hPa
Summary: Light freezing, Rain, Mist
Clouds: Overcast
Visibility: 3 miles , 5 km
Cloud details: Overcast 500 ft
2020/11/24 08:53 KGFK 240853Z AUTO 15016G21KT 3SM -FZRA BR OVC005 00/M02 A2985 RMK AO2 SLP120 P0001 60002 I1003 I3007 T00001017 56013
KMOT - Minot, North Dakota, USA
Distance from station: E 109mi, 175km
Updated: Tue, 24-Nov-2020 3:06am CST
Mist, Overcast
Mist, Overcast
 Wind from W
Wind: W 14 mph , 22 km/h
Temperature: 23°F , -5°C
Wind Chill: 11°F , -12°C
Dew Point: 19°F , -7°C
Humidity: 86%
Barometer: 29.75 inHg , 1007.5 hPa
Summary: Mist
Clouds: Overcast
Visibility: 5 miles , 8 km
Cloud details: Overcast 400 ft
2020/11/24 09:06 KMOT 240906Z AUTO 28012KT 5SM BR OVC004 M05/M07 A2975 RMK AO2 T10501072